sensor_id;sensor_type;location;lat;lon;timestamp;P1;durP1;ratioP1;P2;durP2;ratioP2
4468;SDS011;2247;42.666;23.292;2023-11-21T00:00:11;27.50;;;15.67;;
4468;SDS011;2247;42.666;23.292;2023-11-21T00:02:39;35.13;;;15.03;;
4468;SDS011;2247;42.666;23.292;2023-11-21T00:05:06;30.50;;;16.13;;
4468;SDS011;2247;42.666;23.292;2023-11-21T00:07:35;27.97;;;14.90;;
4468;SDS011;2247;42.666;23.292;2023-11-21T00:10:02;27.13;;;14.97;;
4468;SDS011;2247;42.666;23.292;2023-11-21T00:12:30;25.97;;;14.70;;
4468;SDS011;2247;42.666;23.292;2023-11-21T00:14:57;34.13;;;14.50;;
4468;SDS011;2247;42.666;23.292;2023-11-21T00:17:25;37.60;;;14.47;;
4468;SDS011;2247;42.666;23.292;2023-11-21T00:19:52;25.13;;;14.00;;
4468;SDS011;2247;42.666;23.292;2023-11-21T00:22:19;26.13;;;15.10;;
4468;SDS011;2247;42.666;23.292;2023-11-21T00:24:46;27.40;;;15.53;;
4468;SDS011;2247;42.666;23.292;2023-11-21T00:27:13;36.83;;;15.47;;
4468;SDS011;2247;42.666;23.292;2023-11-21T00:29:39;32.90;;;15.60;;
4468;SDS011;2247;42.666;23.292;2023-11-21T00:32:07;27.83;;;14.90;;
4468;SDS011;2247;42.666;23.292;2023-11-21T00:34:35;24.90;;;13.87;;
4468;SDS011;2247;42.666;23.292;2023-11-21T00:37:02;20.70;;;12.50;;
4468;SDS011;2247;42.666;23.292;2023-11-21T00:39:29;20.60;;;13.07;;
4468;SDS011;2247;42.666;23.292;2023-11-21T00:41:58;31.13;;;15.20;;
4468;SDS011;2247;42.666;23.292;2023-11-21T00:44:25;24.73;;;14.10;;
4468;SDS011;2247;42.666;23.292;2023-11-21T00:46:51;26.43;;;13.57;;
4468;SDS011;2247;42.666;23.292;2023-11-21T00:49:19;27.87;;;13.47;;
4468;SDS011;2247;42.666;23.292;2023-11-21T00:51:48;28.57;;;13.30;;
4468;SDS011;2247;42.666;23.292;2023-11-21T00:54:15;23.40;;;13.50;;
4468;SDS011;2247;42.666;23.292;2023-11-21T00:56:42;29.53;;;13.70;;
4468;SDS011;2247;42.666;23.292;2023-11-21T00:59:09;24.27;;;12.60;;
4468;SDS011;2247;42.666;23.292;2023-11-21T01:01:36;21.57;;;13.43;;
4468;SDS011;2247;42.666;23.292;2023-11-21T01:04:03;25.93;;;13.50;;
4468;SDS011;2247;42.666;23.292;2023-11-21T01:06:31;26.50;;;13.40;;
4468;SDS011;2247;42.666;23.292;2023-11-21T01:09:00;28.67;;;16.17;;
4468;SDS011;2247;42.666;23.292;2023-11-21T01:11:29;26.00;;;14.53;;
4468;SDS011;2247;42.666;23.292;2023-11-21T01:13:55;23.33;;;13.67;;
4468;SDS011;2247;42.666;23.292;2023-11-21T01:16:22;22.93;;;12.33;;
4468;SDS011;2247;42.666;23.292;2023-11-21T01:18:49;25.80;;;14.10;;
4468;SDS011;2247;42.666;23.292;2023-11-21T01:21:16;23.77;;;13.37;;
4468;SDS011;2247;42.666;23.292;2023-11-21T01:23:43;22.97;;;12.87;;
4468;SDS011;2247;42.666;23.292;2023-11-21T01:26:11;21.33;;;11.53;;
4468;SDS011;2247;42.666;23.292;2023-11-21T01:28:37;26.30;;;13.63;;
4468;SDS011;2247;42.666;23.292;2023-11-21T01:31:04;25.23;;;14.30;;
4468;SDS011;2247;42.666;23.292;2023-11-21T01:33:32;28.93;;;14.40;;
4468;SDS011;2247;42.666;23.292;2023-11-21T01:35:59;27.63;;;14.43;;
4468;SDS011;2247;42.666;23.292;2023-11-21T01:38:26;25.10;;;13.53;;
4468;SDS011;2247;42.666;23.292;2023-11-21T01:40:52;25.53;;;12.40;;
4468;SDS011;2247;42.666;23.292;2023-11-21T01:43:21;30.80;;;16.77;;
4468;SDS011;2247;42.666;23.292;2023-11-21T01:45:47;30.27;;;14.37;;
4468;SDS011;2247;42.666;23.292;2023-11-21T01:48:14;37.00;;;14.73;;
4468;SDS011;2247;42.666;23.292;2023-11-21T01:50:41;26.40;;;15.00;;
4468;SDS011;2247;42.666;23.292;2023-11-21T01:53:10;29.93;;;15.97;;
4468;SDS011;2247;42.666;23.292;2023-11-21T01:55:39;25.23;;;15.00;;
4468;SDS011;2247;42.666;23.292;2023-11-21T01:58:07;22.30;;;14.40;;
4468;SDS011;2247;42.666;23.292;2023-11-21T02:00:36;34.83;;;15.47;;
4468;SDS011;2247;42.666;23.292;2023-11-21T02:03:03;26.43;;;14.37;;
4468;SDS011;2247;42.666;23.292;2023-11-21T02:05:32;26.10;;;14.50;;
4468;SDS011;2247;42.666;23.292;2023-11-21T02:07:59;24.20;;;12.87;;
4468;SDS011;2247;42.666;23.292;2023-11-21T02:10:26;23.73;;;13.77;;
4468;SDS011;2247;42.666;23.292;2023-11-21T02:12:52;27.60;;;13.17;;
4468;SDS011;2247;42.666;23.292;2023-11-21T02:15:21;24.43;;;13.80;;
4468;SDS011;2247;42.666;23.292;2023-11-21T02:17:53;24.20;;;13.70;;
4468;SDS011;2247;42.666;23.292;2023-11-21T02:20:23;30.50;;;15.13;;
4468;SDS011;2247;42.666;23.292;2023-11-21T02:22:53;26.50;;;13.10;;
4468;SDS011;2247;42.666;23.292;2023-11-21T02:25:23;27.07;;;14.97;;
4468;SDS011;2247;42.666;23.292;2023-11-21T02:27:50;24.90;;;14.80;;
4468;SDS011;2247;42.666;23.292;2023-11-21T02:30:16;37.80;;;14.43;;
4468;SDS011;2247;42.666;23.292;2023-11-21T02:32:43;22.00;;;12.40;;
4468;SDS011;2247;42.666;23.292;2023-11-21T02:35:11;22.40;;;12.30;;
4468;SDS011;2247;42.666;23.292;2023-11-21T02:37:38;22.43;;;12.70;;
4468;SDS011;2247;42.666;23.292;2023-11-21T02:40:08;28.13;;;12.80;;
4468;SDS011;2247;42.666;23.292;2023-11-21T02:42:37;22.90;;;12.67;;
4468;SDS011;2247;42.666;23.292;2023-11-21T02:45:05;26.83;;;14.57;;
4468;SDS011;2247;42.666;23.292;2023-11-21T02:47:33;20.50;;;11.57;;
4468;SDS011;2247;42.666;23.292;2023-11-21T02:49:59;21.63;;;11.83;;
4468;SDS011;2247;42.666;23.292;2023-11-21T02:52:26;30.90;;;13.00;;
4468;SDS011;2247;42.666;23.292;2023-11-21T02:54:53;20.93;;;13.23;;
4468;SDS011;2247;42.666;23.292;2023-11-21T02:57:22;34.37;;;15.60;;
4468;SDS011;2247;42.666;23.292;2023-11-21T02:59:49;23.90;;;11.67;;
4468;SDS011;2247;42.666;23.292;2023-11-21T03:02:15;27.43;;;14.40;;
4468;SDS011;2247;42.666;23.292;2023-11-21T03:04:42;22.30;;;13.50;;
4468;SDS011;2247;42.666;23.292;2023-11-21T03:07:09;25.23;;;12.47;;
4468;SDS011;2247;42.666;23.292;2023-11-21T03:09:36;20.97;;;11.63;;
4468;SDS011;2247;42.666;23.292;2023-11-21T03:12:04;24.20;;;13.67;;
4468;SDS011;2247;42.666;23.292;2023-11-21T03:14:32;21.03;;;12.57;;
4468;SDS011;2247;42.666;23.292;2023-11-21T03:16:59;23.70;;;12.37;;
4468;SDS011;2247;42.666;23.292;2023-11-21T03:19:27;22.77;;;12.57;;
4468;SDS011;2247;42.666;23.292;2023-11-21T03:21:54;23.00;;;12.20;;
4468;SDS011;2247;42.666;23.292;2023-11-21T03:24:21;20.43;;;11.70;;
4468;SDS011;2247;42.666;23.292;2023-11-21T03:26:48;25.77;;;12.70;;
4468;SDS011;2247;42.666;23.292;2023-11-21T03:29:16;19.90;;;12.27;;
4468;SDS011;2247;42.666;23.292;2023-11-21T03:31:44;18.13;;;11.50;;
4468;SDS011;2247;42.666;23.292;2023-11-21T03:34:15;19.97;;;12.07;;
4468;SDS011;2247;42.666;23.292;2023-11-21T03:36:46;19.77;;;12.17;;
4468;SDS011;2247;42.666;23.292;2023-11-21T03:39:13;17.20;;;11.23;;
4468;SDS011;2247;42.666;23.292;2023-11-21T03:41:39;19.70;;;12.57;;
4468;SDS011;2247;42.666;23.292;2023-11-21T03:44:06;25.83;;;12.10;;
4468;SDS011;2247;42.666;23.292;2023-11-21T03:46:33;23.13;;;13.00;;
4468;SDS011;2247;42.666;23.292;2023-11-21T03:49:01;22.73;;;11.40;;
4468;SDS011;2247;42.666;23.292;2023-11-21T03:51:28;25.13;;;13.40;;
4468;SDS011;2247;42.666;23.292;2023-11-21T03:53:55;33.30;;;16.20;;
4468;SDS011;2247;42.666;23.292;2023-11-21T03:56:22;25.13;;;13.43;;
4468;SDS011;2247;42.666;23.292;2023-11-21T03:58:49;26.43;;;14.10;;
4468;SDS011;2247;42.666;23.292;2023-11-21T04:01:19;24.63;;;13.97;;
4468;SDS011;2247;42.666;23.292;2023-11-21T04:03:48;28.07;;;14.10;;
4468;SDS011;2247;42.666;23.292;2023-11-21T04:06:16;18.53;;;12.57;;
4468;SDS011;2247;42.666;23.292;2023-11-21T04:08:44;24.43;;;13.83;;
4468;SDS011;2247;42.666;23.292;2023-11-21T04:11:11;25.43;;;13.70;;
4468;SDS011;2247;42.666;23.292;2023-11-21T04:13:38;30.03;;;13.53;;
4468;SDS011;2247;42.666;23.292;2023-11-21T04:16:05;32.87;;;14.27;;
4468;SDS011;2247;42.666;23.292;2023-11-21T04:18:33;23.30;;;13.07;;
4468;SDS011;2247;42.666;23.292;2023-11-21T04:21:01;29.80;;;14.03;;
4468;SDS011;2247;42.666;23.292;2023-11-21T04:23:29;22.13;;;13.93;;
4468;SDS011;2247;42.666;23.292;2023-11-21T04:25:57;24.00;;;13.90;;
4468;SDS011;2247;42.666;23.292;2023-11-21T04:28:24;25.40;;;13.00;;
4468;SDS011;2247;42.666;23.292;2023-11-21T04:30:51;28.07;;;13.17;;
4468;SDS011;2247;42.666;23.292;2023-11-21T04:33:17;27.27;;;14.03;;
4468;SDS011;2247;42.666;23.292;2023-11-21T04:35:44;26.43;;;16.43;;
4468;SDS011;2247;42.666;23.292;2023-11-21T04:38:11;33.53;;;16.13;;
4468;SDS011;2247;42.666;23.292;2023-11-21T04:40:39;34.07;;;19.43;;
4468;SDS011;2247;42.666;23.292;2023-11-21T04:43:06;34.90;;;20.33;;
4468;SDS011;2247;42.666;23.292;2023-11-21T04:45:33;33.80;;;20.93;;
4468;SDS011;2247;42.666;23.292;2023-11-21T04:48:00;34.47;;;19.53;;
4468;SDS011;2247;42.666;23.292;2023-11-21T04:50:27;42.60;;;20.60;;
4468;SDS011;2247;42.666;23.292;2023-11-21T04:52:54;38.83;;;20.90;;
4468;SDS011;2247;42.666;23.292;2023-11-21T04:55:21;34.83;;;21.13;;
4468;SDS011;2247;42.666;23.292;2023-11-21T04:57:49;38.73;;;20.43;;
4468;SDS011;2247;42.666;23.292;2023-11-21T05:00:16;42.63;;;21.53;;
4468;SDS011;2247;42.666;23.292;2023-11-21T05:02:43;31.77;;;19.27;;
4468;SDS011;2247;42.666;23.292;2023-11-21T05:05:12;33.57;;;19.17;;
4468;SDS011;2247;42.666;23.292;2023-11-21T05:07:40;35.97;;;19.73;;
4468;SDS011;2247;42.666;23.292;2023-11-21T05:10:08;37.13;;;20.70;;
4468;SDS011;2247;42.666;23.292;2023-11-21T05:12:37;38.17;;;19.53;;
4468;SDS011;2247;42.666;23.292;2023-11-21T05:15:07;33.20;;;19.40;;
4468;SDS011;2247;42.666;23.292;2023-11-21T05:17:36;32.13;;;18.03;;
4468;SDS011;2247;42.666;23.292;2023-11-21T05:25:14;54.03;;;19.37;;
4468;SDS011;2247;42.666;23.292;2023-11-21T05:27:43;37.70;;;18.50;;
4468;SDS011;2247;42.666;23.292;2023-11-21T05:30:11;33.13;;;18.93;;
4468;SDS011;2247;42.666;23.292;2023-11-21T05:32:39;31.70;;;18.30;;
4468;SDS011;2247;42.666;23.292;2023-11-21T05:35:07;38.47;;;19.53;;
4468;SDS011;2247;42.666;23.292;2023-11-21T05:37:39;30.70;;;18.30;;
4468;SDS011;2247;42.666;23.292;2023-11-21T05:40:06;31.43;;;17.60;;
4468;SDS011;2247;42.666;23.292;2023-11-21T05:42:35;35.77;;;18.97;;
4468;SDS011;2247;42.666;23.292;2023-11-21T05:45:03;37.73;;;18.50;;
4468;SDS011;2247;42.666;23.292;2023-11-21T05:47:36;33.80;;;18.23;;
4468;SDS011;2247;42.666;23.292;2023-11-21T05:50:06;26.37;;;16.37;;
4468;SDS011;2247;42.666;23.292;2023-11-21T05:52:35;29.63;;;17.50;;
4468;SDS011;2247;42.666;23.292;2023-11-21T05:55:03;32.80;;;17.50;;
4468;SDS011;2247;42.666;23.292;2023-11-21T05:57:32;29.73;;;17.07;;
4468;SDS011;2247;42.666;23.292;2023-11-21T05:59:59;36.33;;;17.33;;
4468;SDS011;2247;42.666;23.292;2023-11-21T06:02:26;34.70;;;17.80;;
4468;SDS011;2247;42.666;23.292;2023-11-21T06:04:54;33.20;;;17.53;;
4468;SDS011;2247;42.666;23.292;2023-11-21T06:07:21;34.00;;;16.00;;
4468;SDS011;2247;42.666;23.292;2023-11-21T06:09:48;32.87;;;16.00;;
4468;SDS011;2247;42.666;23.292;2023-11-21T06:12:15;27.60;;;15.03;;
4468;SDS011;2247;42.666;23.292;2023-11-21T06:14:42;26.63;;;14.87;;
4468;SDS011;2247;42.666;23.292;2023-11-21T06:17:09;25.93;;;16.10;;
4468;SDS011;2247;42.666;23.292;2023-11-21T06:19:36;28.57;;;16.10;;
4468;SDS011;2247;42.666;23.292;2023-11-21T06:22:04;28.20;;;14.87;;
4468;SDS011;2247;42.666;23.292;2023-11-21T06:24:31;27.27;;;14.50;;
4468;SDS011;2247;42.666;23.292;2023-11-21T06:26:58;23.97;;;14.07;;
4468;SDS011;2247;42.666;23.292;2023-11-21T06:29:25;29.13;;;14.70;;
4468;SDS011;2247;42.666;23.292;2023-11-21T06:31:51;23.40;;;14.40;;
4468;SDS011;2247;42.666;23.292;2023-11-21T06:34:20;24.43;;;14.73;;
4468;SDS011;2247;42.666;23.292;2023-11-21T06:36:47;29.27;;;15.20;;
4468;SDS011;2247;42.666;23.292;2023-11-21T06:39:15;31.33;;;14.87;;
4468;SDS011;2247;42.666;23.292;2023-11-21T06:41:42;31.90;;;15.37;;
4468;SDS011;2247;42.666;23.292;2023-11-21T06:44:09;30.93;;;16.87;;
4468;SDS011;2247;42.666;23.292;2023-11-21T06:46:36;26.30;;;14.63;;
4468;SDS011;2247;42.666;23.292;2023-11-21T06:49:04;27.60;;;14.17;;
4468;SDS011;2247;42.666;23.292;2023-11-21T06:51:31;26.13;;;14.13;;
4468;SDS011;2247;42.666;23.292;2023-11-21T06:53:58;25.67;;;15.70;;
4468;SDS011;2247;42.666;23.292;2023-11-21T06:56:26;31.50;;;16.60;;
4468;SDS011;2247;42.666;23.292;2023-11-21T06:58:53;35.40;;;16.47;;
4468;SDS011;2247;42.666;23.292;2023-11-21T07:01:20;35.90;;;17.93;;
4468;SDS011;2247;42.666;23.292;2023-11-21T07:03:47;39.50;;;22.40;;
4468;SDS011;2247;42.666;23.292;2023-11-21T07:06:13;49.57;;;24.57;;
4468;SDS011;2247;42.666;23.292;2023-11-21T07:08:42;40.70;;;23.73;;
4468;SDS011;2247;42.666;23.292;2023-11-21T07:11:08;42.73;;;24.83;;
4468;SDS011;2247;42.666;23.292;2023-11-21T07:13:37;51.43;;;24.30;;
4468;SDS011;2247;42.666;23.292;2023-11-21T07:16:04;47.57;;;24.33;;
4468;SDS011;2247;42.666;23.292;2023-11-21T07:18:31;45.97;;;24.97;;
4468;SDS011;2247;42.666;23.292;2023-11-21T07:20:58;42.10;;;22.73;;
4468;SDS011;2247;42.666;23.292;2023-11-21T07:23:25;43.63;;;23.03;;
4468;SDS011;2247;42.666;23.292;2023-11-21T07:25:51;58.33;;;25.43;;
4468;SDS011;2247;42.666;23.292;2023-11-21T07:28:18;49.63;;;22.17;;
4468;SDS011;2247;42.666;23.292;2023-11-21T07:30:46;46.70;;;24.07;;
4468;SDS011;2247;42.666;23.292;2023-11-21T07:33:13;39.47;;;23.30;;
4468;SDS011;2247;42.666;23.292;2023-11-21T07:35:40;45.00;;;22.70;;
4468;SDS011;2247;42.666;23.292;2023-11-21T07:38:07;36.83;;;21.60;;
4468;SDS011;2247;42.666;23.292;2023-11-21T07:40:34;40.73;;;21.10;;
4468;SDS011;2247;42.666;23.292;2023-11-21T07:43:01;36.83;;;21.10;;
4468;SDS011;2247;42.666;23.292;2023-11-21T07:45:28;38.47;;;19.97;;
4468;SDS011;2247;42.666;23.292;2023-11-21T07:47:56;31.67;;;19.37;;
4468;SDS011;2247;42.666;23.292;2023-11-21T07:50:23;37.40;;;20.23;;
4468;SDS011;2247;42.666;23.292;2023-11-21T07:52:51;39.43;;;19.20;;
4468;SDS011;2247;42.666;23.292;2023-11-21T07:55:19;31.73;;;18.87;;
4468;SDS011;2247;42.666;23.292;2023-11-21T07:57:46;29.63;;;17.80;;
4468;SDS011;2247;42.666;23.292;2023-11-21T08:00:13;32.50;;;17.80;;
4468;SDS011;2247;42.666;23.292;2023-11-21T08:02:40;29.20;;;16.80;;
4468;SDS011;2247;42.666;23.292;2023-11-21T08:05:12;32.17;;;18.47;;
4468;SDS011;2247;42.666;23.292;2023-11-21T08:07:39;37.90;;;19.20;;
4468;SDS011;2247;42.666;23.292;2023-11-21T08:10:06;30.83;;;18.80;;
4468;SDS011;2247;42.666;23.292;2023-11-21T08:12:35;32.20;;;18.20;;
4468;SDS011;2247;42.666;23.292;2023-11-21T08:15:04;30.80;;;17.33;;
4468;SDS011;2247;42.666;23.292;2023-11-21T08:17:32;39.43;;;18.57;;
4468;SDS011;2247;42.666;23.292;2023-11-21T08:19:59;47.50;;;17.77;;
4468;SDS011;2247;42.666;23.292;2023-11-21T08:22:28;40.00;;;19.83;;
4468;SDS011;2247;42.666;23.292;2023-11-21T08:24:55;52.47;;;19.23;;
4468;SDS011;2247;42.666;23.292;2023-11-21T08:27:22;37.57;;;20.73;;
4468;SDS011;2247;42.666;23.292;2023-11-21T08:29:49;36.40;;;21.93;;
4468;SDS011;2247;42.666;23.292;2023-11-21T08:32:17;37.87;;;19.63;;
4468;SDS011;2247;42.666;23.292;2023-11-21T08:34:44;40.10;;;21.60;;
4468;SDS011;2247;42.666;23.292;2023-11-21T08:37:14;46.33;;;22.93;;
4468;SDS011;2247;42.666;23.292;2023-11-21T08:39:43;35.70;;;21.40;;
4468;SDS011;2247;42.666;23.292;2023-11-21T08:42:10;43.30;;;20.53;;
4468;SDS011;2247;42.666;23.292;2023-11-21T08:44:37;44.43;;;21.80;;
4468;SDS011;2247;42.666;23.292;2023-11-21T08:47:04;36.43;;;21.00;;
4468;SDS011;2247;42.666;23.292;2023-11-21T08:49:30;36.30;;;20.93;;
4468;SDS011;2247;42.666;23.292;2023-11-21T08:51:57;36.90;;;19.00;;
4468;SDS011;2247;42.666;23.292;2023-11-21T08:54:24;52.67;;;19.80;;
4468;SDS011;2247;42.666;23.292;2023-11-21T08:56:53;35.70;;;18.70;;
4468;SDS011;2247;42.666;23.292;2023-11-21T08:59:23;31.43;;;18.73;;
4468;SDS011;2247;42.666;23.292;2023-11-21T09:01:50;32.70;;;17.77;;
4468;SDS011;2247;42.666;23.292;2023-11-21T09:04:17;29.63;;;16.73;;
4468;SDS011;2247;42.666;23.292;2023-11-21T09:06:43;26.83;;;16.23;;
4468;SDS011;2247;42.666;23.292;2023-11-21T09:09:10;28.30;;;15.83;;
4468;SDS011;2247;42.666;23.292;2023-11-21T09:11:37;26.27;;;16.30;;
4468;SDS011;2247;42.666;23.292;2023-11-21T09:14:05;33.97;;;17.90;;
4468;SDS011;2247;42.666;23.292;2023-11-21T09:16:33;26.20;;;16.70;;
4468;SDS011;2247;42.666;23.292;2023-11-21T09:19:00;26.43;;;14.47;;
4468;SDS011;2247;42.666;23.292;2023-11-21T09:21:28;25.03;;;14.93;;
4468;SDS011;2247;42.666;23.292;2023-11-21T09:23:55;34.40;;;15.33;;
4468;SDS011;2247;42.666;23.292;2023-11-21T09:26:23;25.90;;;13.87;;
4468;SDS011;2247;42.666;23.292;2023-11-21T09:28:50;26.13;;;12.37;;
4468;SDS011;2247;42.666;23.292;2023-11-21T09:31:18;24.53;;;14.00;;
4468;SDS011;2247;42.666;23.292;2023-11-21T09:33:47;22.80;;;13.93;;
4468;SDS011;2247;42.666;23.292;2023-11-21T09:36:14;26.80;;;14.50;;
4468;SDS011;2247;42.666;23.292;2023-11-21T09:38:41;25.20;;;14.43;;
4468;SDS011;2247;42.666;23.292;2023-11-21T09:41:10;20.50;;;14.80;;
4468;SDS011;2247;42.666;23.292;2023-11-21T09:43:47;30.63;;;14.27;;
4468;SDS011;2247;42.666;23.292;2023-11-21T09:46:20;33.73;;;14.03;;
4468;SDS011;2247;42.666;23.292;2023-11-21T09:48:50;22.60;;;12.97;;
4468;SDS011;2247;42.666;23.292;2023-11-21T09:51:18;28.53;;;14.20;;
4468;SDS011;2247;42.666;23.292;2023-11-21T09:53:48;26.60;;;11.60;;
4468;SDS011;2247;42.666;23.292;2023-11-21T09:56:18;22.33;;;13.40;;
4468;SDS011;2247;42.666;23.292;2023-11-21T09:58:50;20.60;;;10.73;;
4468;SDS011;2247;42.666;23.292;2023-11-21T10:01:19;18.20;;;10.20;;
4468;SDS011;2247;42.666;23.292;2023-11-21T10:03:47;19.20;;;11.40;;
4468;SDS011;2247;42.666;23.292;2023-11-21T10:06:15;18.47;;;10.87;;
4468;SDS011;2247;42.666;23.292;2023-11-21T10:08:44;17.90;;;11.40;;
4468;SDS011;2247;42.666;23.292;2023-11-21T10:11:11;20.00;;;11.53;;
4468;SDS011;2247;42.666;23.292;2023-11-21T10:13:41;17.80;;;11.20;;
4468;SDS011;2247;42.666;23.292;2023-11-21T10:16:11;25.00;;;11.27;;
4468;SDS011;2247;42.666;23.292;2023-11-21T10:18:43;26.20;;;11.93;;
4468;SDS011;2247;42.666;23.292;2023-11-21T10:21:11;19.23;;;12.17;;
4468;SDS011;2247;42.666;23.292;2023-11-21T10:23:38;19.30;;;12.40;;
4468;SDS011;2247;42.666;23.292;2023-11-21T10:26:05;20.00;;;12.73;;
4468;SDS011;2247;42.666;23.292;2023-11-21T10:28:41;21.70;;;12.10;;
4468;SDS011;2247;42.666;23.292;2023-11-21T10:31:08;21.33;;;13.70;;
4468;SDS011;2247;42.666;23.292;2023-11-21T10:33:34;31.97;;;17.43;;
4468;SDS011;2247;42.666;23.292;2023-11-21T10:36:03;29.27;;;16.80;;
4468;SDS011;2247;42.666;23.292;2023-11-21T10:38:33;30.80;;;18.50;;
4468;SDS011;2247;42.666;23.292;2023-11-21T10:41:10;29.10;;;19.33;;
4468;SDS011;2247;42.666;23.292;2023-11-21T10:43:40;29.17;;;18.60;;
4468;SDS011;2247;42.666;23.292;2023-11-21T10:46:07;29.13;;;19.40;;
4468;SDS011;2247;42.666;23.292;2023-11-21T10:48:34;30.83;;;19.00;;
4468;SDS011;2247;42.666;23.292;2023-11-21T10:51:02;26.70;;;17.33;;
4468;SDS011;2247;42.666;23.292;2023-11-21T10:53:37;31.10;;;16.70;;
4468;SDS011;2247;42.666;23.292;2023-11-21T10:56:06;23.53;;;15.67;;
4468;SDS011;2247;42.666;23.292;2023-11-21T10:58:36;31.57;;;17.23;;
4468;SDS011;2247;42.666;23.292;2023-11-21T11:01:05;24.97;;;17.10;;
4468;SDS011;2247;42.666;23.292;2023-11-21T11:03:33;28.03;;;16.07;;
4468;SDS011;2247;42.666;23.292;2023-11-21T11:06:04;26.27;;;16.03;;
4468;SDS011;2247;42.666;23.292;2023-11-21T11:08:36;30.30;;;15.70;;
4468;SDS011;2247;42.666;23.292;2023-11-21T11:11:04;31.60;;;16.70;;
4468;SDS011;2247;42.666;23.292;2023-11-21T11:13:31;25.50;;;16.10;;
4468;SDS011;2247;42.666;23.292;2023-11-21T11:15:58;27.93;;;16.73;;
4468;SDS011;2247;42.666;23.292;2023-11-21T11:18:27;28.67;;;16.53;;
4468;SDS011;2247;42.666;23.292;2023-11-21T11:20:54;37.07;;;16.97;;
4468;SDS011;2247;42.666;23.292;2023-11-21T11:23:33;26.10;;;16.77;;
4468;SDS011;2247;42.666;23.292;2023-11-21T11:26:12;37.40;;;18.17;;
4468;SDS011;2247;42.666;23.292;2023-11-21T11:28:51;29.53;;;18.70;;
4468;SDS011;2247;42.666;23.292;2023-11-21T11:31:26;29.87;;;17.27;;
4468;SDS011;2247;42.666;23.292;2023-11-21T11:34:06;32.70;;;17.20;;
4468;SDS011;2247;42.666;23.292;2023-11-21T11:36:44;33.87;;;17.57;;
4468;SDS011;2247;42.666;23.292;2023-11-21T11:39:28;33.73;;;16.87;;
4468;SDS011;2247;42.666;23.292;2023-11-21T11:42:02;28.70;;;16.37;;
4468;SDS011;2247;42.666;23.292;2023-11-21T11:44:46;26.70;;;15.37;;
4468;SDS011;2247;42.666;23.292;2023-11-21T11:47:16;28.73;;;15.77;;
4468;SDS011;2247;42.666;23.292;2023-11-21T11:49:59;56.37;;;15.53;;
4468;SDS011;2247;42.666;23.292;2023-11-21T11:52:36;23.37;;;15.60;;
4468;SDS011;2247;42.666;23.292;2023-11-21T11:55:07;25.23;;;15.07;;
4468;SDS011;2247;42.666;23.292;2023-11-21T11:57:36;30.03;;;14.73;;
4468;SDS011;2247;42.666;23.292;2023-11-21T12:00:08;33.27;;;17.73;;
4468;SDS011;2247;42.666;23.292;2023-11-21T12:02:41;22.90;;;16.53;;
4468;SDS011;2247;42.666;23.292;2023-11-21T12:05:09;30.07;;;18.27;;
4468;SDS011;2247;42.666;23.292;2023-11-21T12:07:44;29.67;;;16.93;;
4468;SDS011;2247;42.666;23.292;2023-11-21T12:10:14;28.53;;;16.97;;
4468;SDS011;2247;42.666;23.292;2023-11-21T12:12:44;30.43;;;18.10;;
4468;SDS011;2247;42.666;23.292;2023-11-21T12:15:12;31.03;;;16.00;;
4468;SDS011;2247;42.666;23.292;2023-11-21T12:17:39;33.63;;;18.17;;
4468;SDS011;2247;42.666;23.292;2023-11-21T12:20:09;40.13;;;19.50;;
4468;SDS011;2247;42.666;23.292;2023-11-21T12:22:41;36.20;;;19.83;;
4468;SDS011;2247;42.666;23.292;2023-11-21T12:25:09;45.10;;;21.67;;
4468;SDS011;2247;42.666;23.292;2023-11-21T12:27:42;34.07;;;19.90;;
4468;SDS011;2247;42.666;23.292;2023-11-21T12:30:11;38.27;;;22.03;;
4468;SDS011;2247;42.666;23.292;2023-11-21T12:32:40;37.83;;;21.40;;
4468;SDS011;2247;42.666;23.292;2023-11-21T12:35:08;40.33;;;22.10;;
4468;SDS011;2247;42.666;23.292;2023-11-21T12:37:36;41.97;;;23.23;;
4468;SDS011;2247;42.666;23.292;2023-11-21T12:40:04;41.53;;;24.10;;
4468;SDS011;2247;42.666;23.292;2023-11-21T12:42:33;52.50;;;27.00;;
4468;SDS011;2247;42.666;23.292;2023-11-21T12:45:18;51.23;;;27.27;;
4468;SDS011;2247;42.666;23.292;2023-11-21T12:47:46;40.10;;;24.67;;
4468;SDS011;2247;42.666;23.292;2023-11-21T12:50:14;45.10;;;26.10;;
4468;SDS011;2247;42.666;23.292;2023-11-21T12:52:41;53.53;;;26.20;;
4468;SDS011;2247;42.666;23.292;2023-11-21T12:55:15;49.23;;;26.10;;
4468;SDS011;2247;42.666;23.292;2023-11-21T12:57:44;48.93;;;26.73;;
4468;SDS011;2247;42.666;23.292;2023-11-21T13:00:13;45.90;;;24.83;;
4468;SDS011;2247;42.666;23.292;2023-11-21T13:02:54;50.40;;;24.97;;
4468;SDS011;2247;42.666;23.292;2023-11-21T13:05:25;49.33;;;25.77;;
4468;SDS011;2247;42.666;23.292;2023-11-21T13:07:53;44.53;;;24.90;;
4468;SDS011;2247;42.666;23.292;2023-11-21T13:10:22;38.83;;;24.93;;
4468;SDS011;2247;42.666;23.292;2023-11-21T13:12:56;36.67;;;23.90;;
4468;SDS011;2247;42.666;23.292;2023-11-21T13:15:26;45.17;;;23.63;;
4468;SDS011;2247;42.666;23.292;2023-11-21T13:17:56;44.77;;;25.70;;
4468;SDS011;2247;42.666;23.292;2023-11-21T13:20:23;46.33;;;26.73;;
4468;SDS011;2247;42.666;23.292;2023-11-21T13:22:51;47.17;;;26.87;;
4468;SDS011;2247;42.666;23.292;2023-11-21T13:25:22;41.73;;;25.40;;
4468;SDS011;2247;42.666;23.292;2023-11-21T13:27:52;48.77;;;25.10;;
4468;SDS011;2247;42.666;23.292;2023-11-21T13:30:19;44.97;;;24.77;;
4468;SDS011;2247;42.666;23.292;2023-11-21T13:32:53;41.43;;;24.07;;
4468;SDS011;2247;42.666;23.292;2023-11-21T13:35:22;38.77;;;24.07;;
4468;SDS011;2247;42.666;23.292;2023-11-21T13:37:56;41.03;;;24.80;;
4468;SDS011;2247;42.666;23.292;2023-11-21T13:40:25;47.13;;;25.33;;
4468;SDS011;2247;42.666;23.292;2023-11-21T13:42:52;55.07;;;26.90;;
4468;SDS011;2247;42.666;23.292;2023-11-21T13:45:20;55.27;;;25.90;;
4468;SDS011;2247;42.666;23.292;2023-11-21T13:47:49;57.27;;;29.60;;
4468;SDS011;2247;42.666;23.292;2023-11-21T13:50:24;47.17;;;28.47;;
4468;SDS011;2247;42.666;23.292;2023-11-21T13:52:57;51.50;;;27.43;;
4468;SDS011;2247;42.666;23.292;2023-11-21T13:55:28;52.50;;;28.83;;
4468;SDS011;2247;42.666;23.292;2023-11-21T13:57:55;47.20;;;27.87;;
4468;SDS011;2247;42.666;23.292;2023-11-21T14:00:22;47.63;;;28.70;;
4468;SDS011;2247;42.666;23.292;2023-11-21T14:03:18;43.67;;;26.70;;
4468;SDS011;2247;42.666;23.292;2023-11-21T14:05:48;58.00;;;28.03;;
4468;SDS011;2247;42.666;23.292;2023-11-21T14:08:17;57.63;;;26.90;;
4468;SDS011;2247;42.666;23.292;2023-11-21T14:10:46;44.90;;;27.17;;
4468;SDS011;2247;42.666;23.292;2023-11-21T14:13:16;48.00;;;27.57;;
4468;SDS011;2247;42.666;23.292;2023-11-21T14:15:44;51.83;;;29.83;;
4468;SDS011;2247;42.666;23.292;2023-11-21T14:18:16;42.50;;;27.40;;
4468;SDS011;2247;42.666;23.292;2023-11-21T14:20:52;46.17;;;27.70;;
4468;SDS011;2247;42.666;23.292;2023-11-21T14:23:20;46.93;;;28.13;;
4468;SDS011;2247;42.666;23.292;2023-11-21T14:25:48;54.00;;;29.40;;
4468;SDS011;2247;42.666;23.292;2023-11-21T14:28:16;52.83;;;28.13;;
4468;SDS011;2247;42.666;23.292;2023-11-21T14:30:42;45.23;;;27.60;;
4468;SDS011;2247;42.666;23.292;2023-11-21T14:33:10;50.50;;;28.20;;
4468;SDS011;2247;42.666;23.292;2023-11-21T14:35:36;48.13;;;28.13;;
4468;SDS011;2247;42.666;23.292;2023-11-21T14:38:05;53.73;;;28.40;;
4468;SDS011;2247;42.666;23.292;2023-11-21T14:40:32;47.80;;;28.60;;
4468;SDS011;2247;42.666;23.292;2023-11-21T14:43:01;48.60;;;28.87;;
4468;SDS011;2247;42.666;23.292;2023-11-21T14:45:30;45.07;;;28.90;;